createdAt,value
2023-01-25T00:01:42.014Z,46.43
2023-01-25T00:04:08.756Z,49.53
2023-01-25T00:06:35.380Z,52.80
2023-01-25T00:09:02.366Z,50.23
2023-01-25T00:11:28.872Z,49.87
2023-01-25T00:13:55.964Z,48.00
2023-01-25T00:16:23.600Z,46.00
2023-01-25T00:18:50.479Z,31.77
2023-01-25T00:21:22.964Z,37.10
2023-01-25T00:23:50.347Z,35.07
2023-01-25T00:26:17.127Z,32.17
2023-01-25T00:28:43.803Z,32.80
2023-01-25T00:31:17.372Z,34.33
2023-01-25T00:33:51.149Z,36.23
2023-01-25T00:36:33.716Z,39.40
2023-01-25T00:39:00.355Z,35.43
2023-01-25T00:41:26.921Z,37.37
2023-01-25T00:43:53.557Z,32.00
2023-01-25T00:46:20.142Z,33.40
2023-01-25T00:48:46.665Z,35.63
2023-01-25T00:51:13.657Z,39.30
2023-01-25T00:53:40.142Z,35.53
2023-01-25T00:56:06.898Z,34.97
2023-01-25T00:58:33.535Z,38.30
2023-01-25T01:01:00.480Z,38.97
2023-01-25T01:03:27.000Z,30.73
2023-01-25T01:06:11.701Z,32.13
2023-01-25T01:08:42.278Z,31.23
2023-01-25T01:11:10.941Z,27.87
2023-01-25T01:13:38.344Z,29.77
2023-01-25T01:16:08.496Z,26.63
2023-01-25T01:18:36.299Z,27.57
2023-01-25T01:21:03.625Z,31.67
2023-01-25T01:23:30.524Z,29.77
2023-01-25T01:26:00.387Z,28.23
2023-01-25T01:28:29.815Z,30.60
2023-01-25T01:31:03.550Z,26.60
2023-01-25T01:33:30.076Z,23.67
2023-01-25T01:35:57.180Z,24.37
2023-01-25T01:38:24.131Z,23.17
2023-01-25T01:40:50.915Z,34.43
2023-01-25T01:43:19.997Z,24.50
2023-01-25T01:45:49.571Z,26.13
2023-01-25T01:48:31.091Z,24.20
2023-01-25T01:51:00.766Z,27.30
2023-01-25T01:53:27.982Z,22.93
2023-01-25T01:55:57.527Z,26.53
2023-01-25T01:58:24.303Z,23.33
2023-01-25T02:00:50.959Z,26.57
2023-01-25T02:03:17.976Z,27.73
2023-01-25T02:05:44.405Z,23.93
2023-01-25T02:08:14.951Z,28.43
2023-01-25T02:10:42.739Z,21.67
2023-01-25T02:13:09.254Z,27.47
2023-01-25T02:15:42.283Z,24.30
2023-01-25T02:18:10.614Z,23.27
2023-01-25T02:20:41.327Z,25.27
2023-01-25T02:23:31.706Z,25.07
2023-01-25T02:26:00.913Z,24.07
2023-01-25T02:28:38.134Z,25.17
2023-01-25T02:31:04.832Z,21.47
2023-01-25T02:33:31.416Z,24.43
2023-01-25T02:36:19.539Z,22.73
2023-01-25T02:38:51.245Z,25.17
2023-01-25T02:41:23.792Z,26.67
2023-01-25T02:43:50.315Z,23.47
2023-01-25T02:46:33.451Z,22.17
2023-01-25T02:49:01.120Z,22.67
2023-01-25T02:51:30.237Z,24.63
2023-01-25T02:53:57.275Z,24.93
2023-01-25T02:56:24.490Z,22.63
2023-01-25T02:58:51.455Z,21.90
2023-01-25T03:01:18.347Z,23.70
2023-01-25T03:03:44.891Z,18.90
2023-01-25T03:06:11.693Z,21.33
2023-01-25T03:08:38.278Z,20.73
2023-01-25T03:11:05.862Z,21.10
2023-01-25T03:13:33.023Z,21.83
2023-01-25T03:16:05.179Z,22.93
2023-01-25T03:18:31.980Z,30.57
2023-01-25T03:21:05.367Z,30.63
2023-01-25T03:23:31.933Z,20.77
2023-01-25T03:26:19.283Z,25.27
2023-01-25T03:28:46.972Z,24.00
2023-01-25T03:31:15.155Z,31.17
2023-01-25T03:33:42.839Z,18.83
2023-01-25T03:36:10.389Z,16.20
2023-01-25T03:38:37.096Z,14.47
2023-01-25T03:41:04.137Z,12.27
2023-01-25T03:43:30.865Z,14.97
2023-01-25T03:45:59.793Z,16.37
2023-01-25T03:48:27.336Z,15.93
2023-01-25T03:50:56.108Z,14.80
2023-01-25T03:53:30.040Z,13.93
2023-01-25T03:56:11.735Z,15.33
2023-01-25T03:58:39.574Z,15.53
2023-01-25T04:01:07.581Z,15.93
2023-01-25T04:03:34.457Z,13.90
2023-01-25T04:06:01.521Z,16.43
2023-01-25T04:08:28.499Z,14.77
2023-01-25T04:11:16.258Z,17.20
2023-01-25T04:13:42.795Z,21.63
2023-01-25T04:16:12.584Z,20.07
2023-01-25T04:18:40.121Z,18.67
2023-01-25T04:21:06.791Z,17.27
2023-01-25T04:23:33.341Z,26.50
2023-01-25T04:26:02.421Z,30.87
2023-01-25T04:28:29.107Z,31.87
2023-01-25T04:30:56.455Z,34.07
2023-01-25T04:33:23.541Z,36.30
2023-01-25T04:35:50.111Z,35.87
2023-01-25T04:38:16.714Z,38.90
2023-01-25T04:40:43.962Z,37.83
2023-01-25T04:43:12.607Z,37.80
2023-01-25T04:45:39.250Z,43.40
2023-01-25T04:48:10.064Z,42.97
2023-01-25T04:50:37.995Z,42.07
2023-01-25T04:53:06.310Z,43.60
2023-01-25T04:55:34.273Z,43.23
2023-01-25T04:58:01.403Z,44.23
2023-01-25T05:00:29.041Z,45.87
2023-01-25T05:02:55.714Z,48.07
2023-01-25T05:05:22.237Z,44.83
2023-01-25T05:07:48.848Z,46.93
2023-01-25T05:10:15.371Z,44.47
2023-01-25T05:12:41.989Z,46.80
2023-01-25T05:15:09.072Z,42.33
2023-01-25T05:17:35.955Z,43.80
2023-01-25T05:20:03.045Z,51.70
2023-01-25T05:22:29.538Z,43.93
2023-01-25T05:24:56.139Z,44.33
2023-01-25T05:27:22.792Z,44.13
2023-01-25T05:29:49.238Z,40.63
2023-01-25T05:32:21.176Z,48.87
2023-01-25T05:34:48.462Z,48.83
2023-01-25T05:37:17.719Z,49.63
2023-01-25T05:39:44.718Z,49.17
2023-01-25T05:42:13.649Z,53.87
2023-01-25T05:44:40.253Z,50.20
2023-01-25T05:47:07.725Z,53.90
2023-01-25T05:49:34.219Z,50.90
2023-01-25T05:52:00.720Z,51.93
2023-01-25T05:54:27.337Z,57.10
2023-01-25T05:56:53.767Z,52.27
2023-01-25T05:59:20.236Z,51.67
2023-01-25T06:01:47.135Z,54.83
2023-01-25T06:04:18.331Z,54.37
2023-01-25T06:06:44.908Z,54.87
2023-01-25T06:09:14.775Z,55.27
2023-01-25T06:11:44.449Z,54.70
2023-01-25T06:14:10.928Z,52.40
2023-01-25T06:16:37.635Z,56.97
2023-01-25T06:19:08.245Z,52.53
2023-01-25T06:21:37.137Z,53.67
2023-01-25T06:24:05.026Z,52.97
2023-01-25T06:26:31.618Z,48.10
2023-01-25T06:28:58.145Z,51.10
2023-01-25T06:31:25.073Z,45.73
2023-01-25T06:33:52.199Z,44.67
2023-01-25T06:36:20.389Z,53.63
2023-01-25T06:38:51.262Z,50.53
2023-01-25T06:41:18.362Z,49.93
2023-01-25T06:43:45.302Z,47.50
2023-01-25T06:46:12.833Z,53.70
2023-01-25T06:48:39.690Z,52.90
2023-01-25T06:51:08.257Z,45.50
2023-01-25T06:53:37.393Z,53.37
2023-01-25T06:56:12.022Z,50.77
2023-01-25T06:58:39.223Z,50.33
2023-01-25T07:01:16.899Z,52.00
2023-01-25T07:03:43.686Z,52.97
2023-01-25T07:06:11.381Z,51.03
2023-01-25T07:08:38.195Z,53.60
2023-01-25T07:11:09.581Z,49.97
2023-01-25T07:13:36.107Z,51.90
2023-01-25T07:16:05.181Z,60.07
2023-01-25T07:18:32.681Z,56.43
2023-01-25T07:21:07.012Z,68.57
2023-01-25T07:23:34.730Z,64.37
2023-01-25T07:26:01.702Z,62.07
2023-01-25T07:28:28.709Z,59.07
2023-01-25T07:30:55.880Z,52.23
2023-01-25T07:33:22.478Z,63.43
2023-01-25T07:35:50.982Z,55.57
2023-01-25T07:38:18.052Z,59.53
2023-01-25T07:40:46.349Z,56.40
2023-01-25T07:43:13.345Z,56.90
2023-01-25T07:45:40.106Z,58.30
2023-01-25T07:48:10.128Z,51.73
2023-01-25T07:50:36.741Z,58.63
2023-01-25T07:53:03.435Z,51.23
2023-01-25T07:55:31.192Z,62.83
2023-01-25T07:57:57.708Z,61.33
2023-01-25T08:00:25.137Z,57.00
2023-01-25T08:02:52.286Z,56.57
2023-01-25T08:05:19.475Z,60.60
2023-01-25T08:07:47.041Z,58.97
2023-01-25T08:10:14.253Z,57.27
2023-01-25T08:12:45.664Z,55.03
2023-01-25T08:15:13.903Z,59.47
2023-01-25T08:17:40.664Z,64.57
2023-01-25T08:20:08.041Z,61.20
2023-01-25T08:22:34.806Z,65.00
2023-01-25T08:25:01.673Z,54.00
2023-01-25T08:27:28.929Z,59.60
2023-01-25T08:29:55.694Z,58.03
2023-01-25T08:32:22.333Z,59.17
2023-01-25T08:34:48.825Z,61.30
2023-01-25T08:37:15.450Z,65.67
2023-01-25T08:39:42.621Z,53.10
2023-01-25T08:42:09.143Z,60.03
2023-01-25T08:44:35.958Z,58.07
2023-01-25T08:47:02.486Z,60.00
2023-01-25T08:49:31.063Z,57.83
2023-01-25T08:51:58.494Z,52.97
2023-01-25T08:54:25.220Z,57.73
2023-01-25T08:56:52.035Z,61.40
2023-01-25T08:59:18.612Z,64.47
2023-01-25T09:01:45.302Z,55.10
2023-01-25T09:04:11.851Z,58.87
2023-01-25T09:06:38.424Z,63.33
2023-01-25T09:09:05.196Z,58.10
2023-01-25T09:11:33.743Z,59.53
2023-01-25T09:14:00.219Z,56.57
2023-01-25T09:16:30.726Z,57.53
2023-01-25T09:18:59.335Z,60.37
2023-01-25T09:21:26.142Z,64.50
2023-01-25T09:24:08.914Z,65.43
2023-01-25T09:26:39.240Z,60.50
2023-01-25T09:29:08.030Z,59.20
2023-01-25T09:31:35.454Z,59.47
2023-01-25T09:34:02.620Z,56.57
2023-01-25T09:36:29.814Z,57.17
2023-01-25T09:38:57.115Z,55.80
2023-01-25T09:41:51.888Z,61.13
2023-01-25T09:44:44.858Z,60.53
2023-01-25T09:47:25.791Z,66.17
2023-01-25T09:50:11.229Z,59.60
2023-01-25T09:52:57.377Z,61.80
2023-01-25T09:55:26.185Z,66.87
2023-01-25T09:57:53.999Z,60.47
2023-01-25T10:00:55.097Z,58.47
2023-01-25T10:03:24.950Z,67.77
2023-01-25T10:05:54.186Z,66.43
2023-01-25T10:08:49.814Z,72.13
2023-01-25T10:11:28.536Z,72.00
2023-01-25T10:13:56.487Z,74.23
2023-01-25T10:16:50.173Z,67.93
2023-01-25T10:19:35.605Z,60.13
2023-01-25T10:22:11.940Z,64.63
2023-01-25T10:24:50.958Z,77.63
2023-01-25T10:27:53.306Z,76.93
2023-01-25T10:30:31.891Z,70.13
2023-01-25T10:33:01.375Z,66.83
2023-01-25T10:35:38.514Z,60.73
2023-01-25T10:38:38.014Z,59.90
2023-01-25T10:41:10.555Z,61.10
2023-01-25T10:43:37.078Z,66.37
2023-01-25T10:46:03.710Z,63.80
2023-01-25T10:48:34.606Z,64.73
2023-01-25T10:51:01.312Z,67.80
2023-01-25T10:53:31.838Z,72.57
2023-01-25T10:56:00.451Z,59.53
2023-01-25T10:58:32.564Z,70.67
2023-01-25T11:00:59.861Z,69.33
2023-01-25T11:03:34.775Z,74.47
2023-01-25T11:06:02.224Z,66.63
2023-01-25T11:08:31.338Z,67.17
2023-01-25T11:10:59.030Z,69.70
2023-01-25T11:13:34.677Z,73.63
2023-01-25T11:16:05.020Z,72.63
2023-01-25T11:18:34.896Z,67.07
2023-01-25T11:21:19.428Z,73.93
2023-01-25T11:24:03.586Z,71.53
2023-01-25T11:26:31.297Z,91.77
2023-01-25T11:29:08.551Z,75.20
2023-01-25T11:31:35.315Z,77.80
2023-01-25T11:34:01.987Z,75.83
2023-01-25T11:36:33.775Z,73.43
2023-01-25T11:39:05.473Z,77.17
2023-01-25T11:41:43.285Z,72.07
2023-01-25T11:44:32.538Z,70.80
2023-01-25T11:47:11.206Z,81.90
2023-01-25T11:49:49.867Z,76.63
2023-01-25T11:52:48.562Z,74.93
2023-01-25T11:55:40.041Z,73.57
2023-01-25T11:58:55.002Z,72.03
2023-01-25T12:01:28.166Z,71.73
2023-01-25T12:04:08.005Z,73.77
2023-01-25T12:06:40.042Z,79.47
2023-01-25T12:09:24.364Z,71.33
2023-01-25T12:12:24.982Z,78.10
2023-01-25T12:15:07.617Z,85.20
2023-01-25T12:17:47.864Z,79.07
2023-01-25T12:20:27.122Z,82.67
2023-01-25T12:23:18.477Z,76.43
2023-01-25T12:26:24.721Z,78.03
2023-01-25T12:29:00.236Z,77.17
2023-01-25T12:32:11.651Z,80.47
2023-01-25T12:34:40.620Z,83.70
2023-01-25T12:37:20.422Z,78.93
2023-01-25T12:40:11.377Z,71.40
2023-01-25T12:42:43.613Z,72.77
2023-01-25T12:45:22.903Z,76.67
2023-01-25T12:47:52.007Z,71.27
2023-01-25T12:50:31.447Z,75.77
2023-01-25T12:53:03.077Z,77.43
2023-01-25T12:55:29.704Z,72.83
2023-01-25T12:58:37.380Z,71.63
2023-01-25T13:01:29.436Z,78.73
2023-01-25T13:04:26.287Z,67.77
2023-01-25T13:07:11.180Z,70.30
2023-01-25T13:09:56.324Z,72.53
2023-01-25T13:12:24.555Z,70.90
2023-01-25T13:14:50.990Z,69.43
2023-01-25T13:17:23.439Z,69.77
2023-01-25T13:19:51.218Z,70.47
2023-01-25T13:22:55.103Z,72.77
2023-01-25T13:25:23.629Z,64.57
2023-01-25T13:27:50.567Z,67.60
2023-01-25T13:30:32.431Z,75.53
2023-01-25T13:33:01.565Z,77.50
2023-01-25T13:35:29.093Z,66.10
2023-01-25T13:38:01.288Z,64.43
2023-01-25T13:40:31.738Z,66.70
2023-01-25T13:43:00.989Z,70.33
2023-01-25T13:45:28.605Z,75.07
2023-01-25T13:48:06.332Z,67.70
2023-01-25T13:50:36.415Z,67.90
2023-01-25T13:53:17.438Z,71.77
2023-01-25T13:55:50.468Z,68.07
2023-01-25T13:58:26.951Z,72.40
2023-01-25T14:00:58.710Z,65.93
2023-01-25T14:03:41.052Z,72.07
2023-01-25T14:06:15.921Z,69.60
2023-01-25T14:08:43.580Z,69.33
2023-01-25T14:11:10.093Z,76.17
2023-01-25T14:13:36.637Z,70.67
2023-01-25T14:16:06.773Z,70.37
2023-01-25T14:18:35.242Z,74.33
2023-01-25T14:21:19.118Z,76.77
2023-01-25T14:23:46.813Z,69.40
2023-01-25T14:26:20.991Z,75.30
2023-01-25T14:28:59.318Z,64.40
2023-01-25T14:31:33.187Z,58.80
2023-01-25T14:33:59.784Z,60.13
2023-01-25T14:36:31.366Z,65.20
2023-01-25T14:38:58.172Z,59.63
2023-01-25T14:41:40.195Z,58.70
2023-01-25T14:44:15.289Z,56.73
2023-01-25T14:46:42.029Z,62.07
2023-01-25T14:49:11.919Z,63.03
2023-01-25T14:51:48.468Z,73.73
2023-01-25T14:54:35.816Z,68.47
2023-01-25T14:57:05.083Z,70.23
2023-01-25T14:59:34.314Z,69.10
2023-01-25T15:02:19.617Z,72.80
2023-01-25T15:05:10.778Z,72.70
2023-01-25T15:07:48.084Z,77.43
2023-01-25T15:10:23.174Z,81.37
2023-01-25T15:13:18.119Z,78.23
2023-01-25T15:15:52.526Z,82.43
2023-01-25T15:18:44.252Z,71.00
2023-01-25T15:21:12.948Z,80.20
2023-01-25T15:23:42.224Z,78.10
2023-01-25T15:26:19.606Z,78.60
2023-01-25T15:28:46.724Z,83.77
2023-01-25T15:31:21.618Z,92.67
2023-01-25T15:33:48.277Z,97.17
2023-01-25T15:36:16.090Z,101.27
2023-01-25T15:38:42.776Z,87.93
2023-01-25T15:41:10.351Z,94.30
2023-01-25T15:43:37.145Z,82.40
2023-01-25T15:46:04.816Z,82.60
2023-01-25T15:48:36.605Z,78.77
2023-01-25T15:51:03.550Z,74.80
2023-01-25T15:53:30.495Z,79.47
2023-01-25T15:56:05.795Z,78.70
2023-01-25T15:58:44.995Z,83.43
2023-01-25T16:01:11.809Z,80.43
2023-01-25T16:03:41.624Z,73.57
2023-01-25T16:06:41.842Z,68.87
2023-01-25T16:09:29.871Z,82.37
2023-01-25T16:11:58.624Z,89.17
2023-01-25T16:14:29.993Z,95.17
2023-01-25T16:16:58.612Z,89.47
2023-01-25T16:19:25.206Z,87.93
2023-01-25T16:21:51.804Z,78.73
2023-01-25T16:24:18.817Z,74.70
2023-01-25T16:26:49.297Z,77.97
2023-01-25T16:29:15.852Z,67.73
2023-01-25T16:31:44.816Z,72.63
2023-01-25T16:34:11.895Z,84.83
2023-01-25T16:36:39.661Z,75.87
2023-01-25T16:39:10.096Z,79.90
2023-01-25T16:41:37.085Z,82.67
2023-01-25T16:44:03.635Z,75.27
2023-01-25T16:46:30.367Z,78.40
2023-01-25T16:48:57.459Z,82.63
2023-01-25T16:51:26.588Z,78.60
2023-01-25T16:53:55.587Z,71.57
2023-01-25T16:56:30.339Z,72.73
2023-01-25T16:59:00.152Z,68.83
2023-01-25T17:01:27.590Z,77.20
2023-01-25T17:03:54.909Z,79.40
2023-01-25T17:06:25.131Z,76.30
2023-01-25T17:08:52.745Z,75.93
2023-01-25T17:11:19.355Z,79.30
2023-01-25T17:13:50.247Z,70.27
2023-01-25T17:16:20.840Z,70.13
2023-01-25T17:18:47.998Z,74.77
2023-01-25T17:21:15.129Z,76.63
2023-01-25T17:23:42.064Z,76.83
2023-01-25T17:26:12.775Z,68.73
2023-01-25T17:28:39.769Z,78.00
2023-01-25T17:31:16.900Z,67.50
2023-01-25T17:33:44.022Z,66.87
2023-01-25T17:36:10.742Z,68.33
2023-01-25T17:38:37.213Z,69.63
2023-01-25T17:41:08.994Z,71.23
2023-01-25T17:43:36.128Z,70.53
2023-01-25T17:46:13.829Z,75.53
2023-01-25T17:48:40.696Z,69.70
2023-01-25T17:51:07.303Z,78.63
2023-01-25T17:53:34.056Z,71.60
2023-01-25T17:56:04.572Z,72.67
2023-01-25T17:58:32.024Z,77.07
2023-01-25T18:01:12.569Z,75.43
2023-01-25T18:03:40.019Z,74.80
2023-01-25T18:06:09.205Z,72.80
2023-01-25T18:08:40.589Z,76.30
2023-01-25T18:11:12.015Z,72.73
2023-01-25T18:13:53.591Z,83.00
2023-01-25T18:16:24.113Z,75.47
2023-01-25T18:18:52.263Z,72.80
2023-01-25T18:21:27.051Z,79.97
2023-01-25T18:24:01.865Z,71.10
2023-01-25T18:26:30.782Z,86.23
2023-01-25T18:29:40.587Z,73.47
2023-01-25T18:32:07.441Z,77.50
2023-01-25T18:34:34.081Z,82.83
2023-01-25T18:37:00.647Z,88.03
2023-01-25T18:39:28.167Z,85.10
2023-01-25T18:41:54.921Z,91.57
2023-01-25T18:44:21.427Z,82.70
2023-01-25T18:46:48.048Z,91.73
2023-01-25T18:49:14.633Z,76.63
2023-01-25T18:52:01.889Z,80.90
2023-01-25T18:54:27.890Z,79.27
2023-01-25T18:56:55.123Z,75.57
2023-01-25T18:59:21.655Z,87.83
2023-01-25T19:01:48.249Z,81.57
2023-01-25T19:04:14.896Z,78.03
2023-01-25T19:06:41.426Z,82.70
2023-01-25T19:09:08.023Z,80.13
2023-01-25T19:11:34.497Z,81.37
2023-01-25T19:14:01.701Z,83.07
2023-01-25T19:16:28.269Z,78.67
2023-01-25T19:18:55.285Z,83.13
2023-01-25T19:21:26.476Z,75.87
2023-01-25T19:23:53.898Z,77.00
2023-01-25T19:26:22.408Z,80.23
2023-01-25T19:28:49.085Z,82.80
2023-01-25T19:31:23.775Z,78.90
2023-01-25T19:33:58.020Z,78.90
2023-01-25T19:36:24.838Z,79.10
2023-01-25T19:38:51.518Z,84.23
2023-01-25T19:41:22.588Z,74.67
2023-01-25T19:43:56.485Z,67.80
2023-01-25T19:46:25.488Z,67.53
2023-01-25T19:48:52.946Z,70.17
2023-01-25T19:51:30.447Z,69.43
2023-01-25T19:54:03.245Z,67.50
2023-01-25T19:56:34.648Z,68.00
2023-01-25T19:59:02.854Z,70.33
2023-01-25T20:01:29.723Z,71.93
2023-01-25T20:04:02.211Z,74.40
2023-01-25T20:06:29.271Z,78.93
2023-01-25T20:08:56.293Z,75.40
2023-01-25T20:11:30.869Z,71.93
2023-01-25T20:13:59.751Z,67.17
2023-01-25T20:16:28.049Z,71.03
2023-01-25T20:18:56.191Z,69.20
2023-01-25T20:21:24.051Z,70.50
2023-01-25T20:23:57.085Z,70.83
2023-01-25T20:26:32.622Z,70.07
2023-01-25T20:28:59.963Z,72.27
2023-01-25T20:31:34.843Z,63.97
2023-01-25T20:34:07.118Z,69.00
2023-01-25T20:36:35.020Z,73.53
2023-01-25T20:39:01.699Z,73.83
2023-01-25T20:41:28.298Z,71.63
2023-01-25T20:44:04.534Z,70.03
2023-01-25T20:46:33.941Z,75.90
2023-01-25T20:49:01.796Z,72.80
2023-01-25T20:51:28.750Z,77.97
2023-01-25T20:53:55.906Z,75.03
2023-01-25T20:56:22.831Z,73.93
2023-01-25T20:58:52.968Z,72.50
2023-01-25T21:01:20.325Z,71.00
2023-01-25T21:03:47.925Z,77.37
2023-01-25T21:06:15.035Z,74.33
2023-01-25T21:08:41.917Z,78.90
2023-01-25T21:11:09.186Z,76.40
2023-01-25T21:13:36.023Z,90.43
2023-01-25T21:16:07.106Z,80.83
2023-01-25T21:18:38.920Z,79.80
2023-01-25T21:21:14.462Z,78.30
2023-01-25T21:23:44.797Z,73.87
2023-01-25T21:26:25.847Z,83.13
2023-01-25T21:28:54.641Z,78.70
2023-01-25T21:31:23.069Z,79.63
2023-01-25T21:33:49.679Z,84.17
2023-01-25T21:36:17.213Z,86.63
2023-01-25T21:38:46.037Z,91.23
2023-01-25T21:41:21.700Z,90.90
2023-01-25T21:44:07.569Z,102.23
2023-01-25T21:46:34.697Z,99.57
2023-01-25T21:49:22.124Z,102.00
2023-01-25T21:51:51.024Z,103.10
2023-01-25T21:54:25.335Z,103.83
2023-01-25T21:56:53.981Z,113.73
2023-01-25T21:59:20.914Z,107.00
2023-01-25T22:01:48.334Z,94.23
2023-01-25T22:04:16.749Z,97.90
2023-01-25T22:06:43.624Z,101.53
2023-01-25T22:09:12.790Z,102.40
2023-01-25T22:11:39.417Z,101.63
2023-01-25T22:14:06.291Z,104.33
2023-01-25T22:16:32.768Z,101.50
2023-01-25T22:19:00.176Z,93.33
2023-01-25T22:21:30.691Z,101.37
2023-01-25T22:23:59.351Z,98.03
2023-01-25T22:26:27.063Z,96.83
2023-01-25T22:28:58.423Z,95.20
2023-01-25T22:31:27.514Z,102.03
2023-01-25T22:33:55.263Z,103.17
2023-01-25T22:36:23.377Z,107.87
2023-01-25T22:38:50.169Z,99.93
2023-01-25T22:41:21.629Z,103.73
2023-01-25T22:43:48.297Z,104.20
2023-01-25T22:46:20.584Z,87.50
2023-01-25T22:48:47.901Z,88.23
2023-01-25T22:51:15.295Z,91.60
2023-01-25T22:53:41.862Z,84.17
2023-01-25T22:56:11.981Z,83.07
2023-01-25T22:58:39.805Z,91.17
2023-01-25T23:01:11.553Z,78.07
2023-01-25T23:03:39.413Z,78.20
2023-01-25T23:06:12.950Z,84.93
2023-01-25T23:08:40.100Z,79.80
2023-01-25T23:11:10.472Z,78.23
2023-01-25T23:13:37.195Z,77.33
2023-01-25T23:16:04.903Z,83.40
2023-01-25T23:18:50.292Z,88.17
2023-01-25T23:21:18.906Z,73.20
2023-01-25T23:23:45.827Z,76.23
2023-01-25T23:26:12.961Z,77.40
2023-01-25T23:28:39.577Z,77.67
2023-01-25T23:31:24.439Z,72.57
2023-01-25T23:33:52.205Z,76.53
2023-01-25T23:36:26.959Z,75.23
2023-01-25T23:38:53.851Z,78.83
2023-01-25T23:41:21.830Z,74.67
2023-01-25T23:43:48.973Z,75.07
2023-01-25T23:46:16.858Z,79.87
2023-01-25T23:48:43.989Z,73.17
2023-01-25T23:51:12.550Z,70.70
2023-01-25T23:53:39.673Z,73.77
2023-01-25T23:56:14.057Z,77.33
2023-01-25T23:58:40.726Z,75.87
